Terminal Aerodrome Forecast
Issued by NWS

Home | Current Version | Previous Version | Text Only | Print | Product List | Glossary On
Versions: 1 2 3 4 5 6 7 8 9 10 11 12 13 14 15 16
000
FTUS43 KLSX 031126
TAFCPS
TAF
KCPS 031126Z 0312/0412 17004KT P6SM SCT120
     FM031600 21007KT P6SM FEW050
     FM040200 VRB03KT P6SM SCT250
      TEMPO 0408/0411 5SM BR=

USA.gov is the U.S. government's official web portal to all federal, state and local government web resources and services.